Time;durP1;ratioP1;P1;durP2;ratioP2;P2;SDS_P1;SDS_P2;PMS_P1;PMS_P2;Temp;Humidity;BMP_temperature;BMP_pressure;BME280_temperature;BME280_humidity;BME280_pressure;Samples;Min_cycle;Max_cycle;Signal;HPM_P1;HPM_P2
2022/05/04 00:00:20;;;;;;;1.20;0.40;;;8.90;91.70;;;;;;5065016;28;20063;-71
2022/05/04 00:02:46;;;;;;;4.35;0.70;;;8.90;92.20;;;;;;5065457;28;20565;-71
2022/05/04 00:05:11;;;;;;;1.25;0.73;;;8.80;92.70;;;;;;5044651;28;20041;-71
2022/05/04 00:07:37;;;;;;;3.25;0.80;;;8.80;93.40;;;;;;5068162;28;20052;-71
2022/05/04 00:10:04;;;;;;;1.02;0.63;;;8.80;93.70;;;;;;5066994;28;20040;-71
2022/05/04 00:12:30;;;;;;;3.40;0.93;;;8.80;93.50;;;;;;5067425;28;20119;-71
2022/05/04 00:14:56;;;;;;;1.52;0.77;;;8.80;93.40;;;;;;5065331;28;20159;-71
2022/05/04 00:17:21;;;;;;;2.95;0.90;;;8.80;93.40;;;;;;5066851;28;20052;-71
2022/05/04 00:19:47;;;;;;;2.20;0.70;;;8.80;93.40;;;;;;5067590;28;20044;-71
2022/05/04 00:22:18;;;;;;;4.28;0.70;;;8.80;93.30;;;;;;5068276;28;20041;-71
2022/05/04 00:24:44;;;;;;;2.20;0.73;;;8.80;93.80;;;;;;5066865;28;20041;-71
2022/05/04 00:27:09;;;;;;;7.95;1.17;;;8.80;94.00;;;;;;5065166;28;20040;-71
2022/05/04 00:29:35;;;;;;;3.70;0.90;;;8.80;94.10;;;;;;5064808;28;20048;-71
2022/05/04 00:32:00;;;;;;;3.08;0.80;;;8.80;94.40;;;;;;5067877;28;20037;-71
2022/05/04 00:34:26;;;;;;;0.85;0.45;;;8.80;94.40;;;;;;5067307;28;20051;-71
2022/05/04 00:36:52;;;;;;;2.80;0.95;;;8.80;94.30;;;;;;5067565;28;20398;-71
2022/05/04 00:39:17;;;;;;;1.30;0.70;;;8.80;94.40;;;;;;5061358;28;20060;-71
2022/05/04 00:41:43;;;;;;;4.32;0.90;;;8.80;94.70;;;;;;5067722;28;20502;-71
2022/05/04 00:44:09;;;;;;;2.30;0.82;;;8.70;95.00;;;;;;5047615;28;20029;-70
2022/05/04 00:46:34;;;;;;;2.45;0.47;;;8.70;95.10;;;;;;5067668;28;20044;-71
2022/05/04 00:49:00;;;;;;;5.05;0.82;;;8.70;95.20;;;;;;5066165;28;20058;-71
2022/05/04 00:51:26;;;;;;;0.95;0.57;;;8.70;95.20;;;;;;5065700;28;20044;-71
2022/05/04 00:53:52;;;;;;;6.35;0.82;;;8.70;95.40;;;;;;5067769;28;20032;-71
2022/05/04 00:56:18;;;;;;;1.73;0.82;;;8.70;96.20;;;;;;5062230;28;20036;-71
2022/05/04 00:58:55;;;;;;;1.38;0.60;;;8.70;96.60;;;;;;5047009;28;20041;-71
2022/05/04 01:01:28;;;;;;;2.80;1.02;;;8.60;96.70;;;;;;5046959;28;20032;-71
2022/05/04 01:03:55;;;;;;;4.90;0.75;;;8.60;97.20;;;;;;5067453;28;20386;-71
2022/05/04 01:06:21;;;;;;;2.63;1.02;;;8.60;97.20;;;;;;5066319;28;20416;-71
2022/05/04 01:08:50;;;;;;;0.82;0.47;;;8.60;97.10;;;;;;5067372;28;20036;-71
2022/05/04 01:11:16;;;;;;;1.67;0.77;;;8.60;97.10;;;;;;5064566;28;20055;-71
2022/05/04 01:13:43;;;;;;;1.60;0.70;;;8.60;96.80;;;;;;5047531;28;20082;-71
2022/05/04 01:16:08;;;;;;;0.93;0.50;;;8.60;96.90;;;;;;5064279;28;20044;-71
2022/05/04 01:18:34;;;;;;;2.22;0.70;;;8.60;97.10;;;;;;5066516;28;20389;-71
2022/05/04 01:21:01;;;;;;;3.33;0.70;;;8.60;97.50;;;;;;5064959;28;20037;-71
2022/05/04 01:23:27;;;;;;;1.92;0.73;;;8.50;97.60;;;;;;5067477;28;20032;-71
2022/05/04 01:25:53;;;;;;;0.93;0.60;;;8.50;97.60;;;;;;5066850;28;20040;-71
2022/05/04 01:28:19;;;;;;;2.55;0.73;;;8.50;97.70;;;;;;5063595;28;20048;-71
2022/05/04 01:30:45;;;;;;;3.28;0.90;;;8.50;98.10;;;;;;5065702;28;20032;-71
2022/05/04 01:33:11;;;;;;;0.85;0.68;;;8.40;98.10;;;;;;5050504;28;20037;-71
2022/05/04 01:35:37;;;;;;;1.30;0.50;;;8.40;98.20;;;;;;5064983;28;20127;-71
2022/05/04 01:38:02;;;;;;;1.55;0.70;;;8.40;98.50;;;;;;5067365;28;20078;-71
2022/05/04 01:40:28;;;;;;;3.42;1.15;;;8.30;98.80;;;;;;5064059;28;20410;-71
2022/05/04 01:42:53;;;;;;;1.67;0.60;;;8.30;99.00;;;;;;5067701;28;20040;-71
2022/05/04 01:45:19;;;;;;;1.33;0.73;;;8.30;99.20;;;;;;5048582;28;20048;-71
2022/05/04 01:47:48;;;;;;;1.10;0.57;;;8.40;98.60;;;;;;5066360;28;20051;-71
2022/05/04 01:50:14;;;;;;;0.77;0.38;;;8.40;99.00;;;;;;5059570;28;20517;-71
2022/05/04 01:52:40;;;;;;;3.67;0.85;;;8.40;98.80;;;;;;5066160;28;20076;-71
2022/05/04 01:55:07;;;;;;;1.38;0.57;;;8.40;98.70;;;;;;5064931;28;20088;-71
2022/05/04 01:57:32;;;;;;;3.20;0.95;;;8.40;98.60;;;;;;5067377;28;20033;-71
2022/05/04 01:59:58;;;;;;;1.17;0.65;;;8.30;98.50;;;;;;5047750;28;20040;-71
2022/05/04 02:02:26;;;;;;;2.72;0.77;;;8.30;98.60;;;;;;5066920;28;20521;-71
2022/05/04 02:04:51;;;;;;;3.83;1.20;;;8.30;98.70;;;;;;5047604;28;20041;-71
2022/05/04 02:07:17;;;;;;;4.13;1.15;;;8.30;98.30;;;;;;5066782;28;20078;-71
2022/05/04 02:09:43;;;;;;;5.68;0.73;;;8.30;98.10;;;;;;5063639;28;20032;-71
2022/05/04 02:12:08;;;;;;;1.45;0.80;;;8.30;98.00;;;;;;5049040;28;20414;-71
2022/05/04 02:14:34;;;;;;;3.45;1.27;;;8.30;98.10;;;;;;5061473;28;20032;-71
2022/05/04 02:17:00;;;;;;;1.42;0.65;;;8.20;98.50;;;;;;5067300;28;20037;-71
2022/05/04 02:19:26;;;;;;;1.33;0.70;;;8.20;99.10;;;;;;5063565;28;20504;-71
2022/05/04 02:21:52;;;;;;;1.33;0.63;;;8.20;99.30;;;;;;5066978;28;20044;-71
2022/05/04 02:24:18;;;;;;;2.58;0.77;;;8.20;99.30;;;;;;5065754;28;20043;-71
2022/05/04 02:26:44;;;;;;;1.75;0.85;;;8.20;99.10;;;;;;5070196;28;20068;-71
2022/05/04 02:29:09;;;;;;;2.53;0.80;;;8.20;99.30;;;;;;5044594;28;20056;-71
2022/05/04 02:31:35;;;;;;;9.95;1.50;;;8.20;99.20;;;;;;5067233;28;20044;-71
2022/05/04 02:34:00;;;;;;;1.63;0.80;;;8.20;99.20;;;;;;5067624;28;20040;-71
2022/05/04 02:39:10;;;;;;;1.85;1.00;;;8.10;99.50;;;;;;5068244;28;20049;-71
2022/05/04 02:41:36;;;;;;;1.38;0.80;;;8.10;99.20;;;;;;5070038;28;20041;-71
2022/05/04 02:44:01;;;;;;;2.80;0.60;;;8.10;99.30;;;;;;5066669;28;20040;-71
2022/05/04 02:46:28;;;;;;;1.08;0.70;;;8.10;99.40;;;;;;5071081;28;20086;-71
2022/05/04 02:48:54;;;;;;;1.83;0.70;;;8.10;99.70;;;;;;5067666;28;20047;-71
2022/05/04 02:51:19;;;;;;;1.08;0.55;;;8.10;99.70;;;;;;5068777;28;20048;-71
2022/05/04 02:53:45;;;;;;;3.47;0.68;;;8.00;99.80;;;;;;5051877;28;20043;-71
2022/05/04 02:56:13;;;;;;;1.13;0.80;;;8.00;99.60;;;;;;5055512;28;20600;-71
2022/05/04 02:58:39;;;;;;;1.50;0.88;;;8.00;99.90;;;;;;5042005;28;20059;-71
2022/05/04 03:04:02;;;;;;;3.38;0.80;;;8.00;99.90;;;;;;5066766;28;20514;-71
2022/05/04 03:06:28;;;;;;;5.40;1.27;;;8.00;99.90;;;;;;5070240;28;20037;-71
2022/05/04 03:08:53;;;;;;;2.35;0.80;;;8.00;99.90;;;;;;5068763;28;20089;-71
2022/05/04 03:14:03;;;;;;;2.35;0.73;;;8.00;99.90;;;;;;5067909;28;20044;-71
2022/05/04 03:16:29;;;;;;;4.25;0.93;;;8.00;99.90;;;;;;5068555;28;20041;-71
2022/05/04 03:18:54;;;;;;;1.33;0.80;;;8.00;99.90;;;;;;5068036;28;20040;-71
2022/05/04 03:21:20;;;;;;;1.08;0.60;;;8.10;99.90;;;;;;5067749;28;20093;-71
2022/05/04 03:23:47;;;;;;;1.60;0.80;;;8.10;99.90;;;;;;5067351;28;20037;-71
2022/05/04 03:26:12;;;;;;;1.60;1.02;;;8.00;99.90;;;;;;5069298;28;20044;-71
2022/05/04 03:28:38;;;;;;;0.90;0.60;;;8.10;99.90;;;;;;5068190;28;20047;-71
2022/05/04 03:31:03;;;;;;;1.77;0.82;;;8.00;99.90;;;;;;5068892;28;20056;-71
2022/05/04 03:33:29;;;;;;;1.25;0.75;;;8.00;99.90;;;;;;5067624;28;20053;-71
2022/05/04 03:35:54;;;;;;;4.82;1.30;;;8.00;99.90;;;;;;5069078;28;20130;-71
2022/05/04 03:38:20;;;;;;;2.28;0.70;;;8.00;99.90;;;;;;5051123;28;20052;-71
2022/05/04 03:40:46;;;;;;;5.15;0.90;;;8.00;99.90;;;;;;5068978;28;20048;-71
2022/05/04 03:43:11;;;;;;;2.55;0.80;;;7.90;99.90;;;;;;5067730;28;20042;-71
2022/05/04 03:45:37;;;;;;;3.38;1.20;;;8.00;99.90;;;;;;5048624;28;20063;-71
2022/05/04 03:48:02;;;;;;;1.88;0.80;;;8.00;99.90;;;;;;5051062;28;20040;-71
2022/05/04 03:50:28;;;;;;;2.58;0.80;;;8.00;99.90;;;;;;5050417;28;20098;-71
2022/05/04 03:52:53;;;;;;;1.10;0.63;;;8.00;99.90;;;;;;5068049;28;20047;-71
2022/05/04 03:55:19;;;;;;;1.48;0.70;;;8.00;99.90;;;;;;5067269;28;20529;-71
2022/05/04 03:57:45;;;;;;;3.53;0.80;;;8.00;99.90;;;;;;5069481;28;20070;-71
2022/05/04 04:00:11;;;;;;;3.63;0.80;;;8.00;99.90;;;;;;5066952;28;20089;-71
2022/05/04 04:02:36;;;;;;;1.83;0.52;;;8.00;99.90;;;;;;5050937;28;20044;-71
2022/05/04 04:05:02;;;;;;;1.63;1.00;;;8.00;99.90;;;;;;5067361;28;20040;-71
2022/05/04 04:07:28;;;;;;;1.75;0.82;;;8.00;99.90;;;;;;5052039;28;20040;-71
2022/05/04 04:09:54;;;;;;;3.15;0.70;;;8.00;99.90;;;;;;5066502;28;20079;-71
2022/05/04 04:12:19;;;;;;;0.60;0.43;;;7.90;99.90;;;;;;5068834;28;20056;-71
2022/05/04 04:14:45;;;;;;;4.35;1.38;;;7.90;99.90;;;;;;5060349;28;20934;-71
2022/05/04 04:17:10;;;;;;;1.00;0.60;;;7.90;99.90;;;;;;5068745;28;20067;-71
2022/05/04 04:19:36;;;;;;;1.05;0.50;;;7.90;99.90;;;;;;5067761;28;20040;-71
2022/05/04 04:22:01;;;;;;;2.08;0.88;;;8.00;99.90;;;;;;5066749;28;20120;-71
2022/05/04 04:24:27;;;;;;;2.05;0.82;;;8.00;99.90;;;;;;5067295;28;20555;-71
2022/05/04 04:26:53;;;;;;;3.60;0.55;;;8.00;99.90;;;;;;5067797;28;20044;-71
2022/05/04 04:29:19;;;;;;;3.75;0.82;;;8.00;99.90;;;;;;5047256;28;20402;-71
2022/05/04 04:31:44;;;;;;;1.13;0.60;;;8.00;99.90;;;;;;5067736;28;20131;-71
2022/05/04 04:34:10;;;;;;;2.72;0.65;;;8.00;99.90;;;;;;5061877;28;20044;-71
2022/05/04 04:36:36;;;;;;;2.72;0.82;;;8.00;99.90;;;;;;5067635;28;20047;-71
2022/05/04 04:39:01;;;;;;;1.23;0.75;;;8.00;99.90;;;;;;5067551;28;20134;-71
2022/05/04 04:41:27;;;;;;;1.02;0.70;;;8.00;99.90;;;;;;5066457;28;20110;-71
2022/05/04 04:43:53;;;;;;;1.65;0.80;;;8.10;99.90;;;;;;5064853;28;20489;-71
2022/05/04 04:46:18;;;;;;;1.40;0.68;;;8.10;99.90;;;;;;5066425;28;20079;-71
2022/05/04 04:48:44;;;;;;;2.60;0.55;;;8.10;99.90;;;;;;5067718;28;20040;-71
2022/05/04 04:51:09;;;;;;;1.70;0.93;;;8.10;99.90;;;;;;5066101;28;20486;-71
2022/05/04 04:53:35;;;;;;;1.25;0.60;;;8.00;99.90;;;;;;5040435;28;20037;-71
2022/05/04 04:56:01;;;;;;;2.95;0.70;;;8.00;99.90;;;;;;5060286;28;20448;-71
2022/05/04 04:58:26;;;;;;;0.75;0.65;;;8.00;99.90;;;;;;5064822;28;20044;-71
2022/05/04 05:00:52;;;;;;;1.75;0.68;;;8.00;99.90;;;;;;5043936;28;20064;-71
2022/05/04 05:03:17;;;;;;;3.42;0.95;;;8.00;99.90;;;;;;5052264;28;20064;-71
2022/05/04 05:05:44;;;;;;;1.70;0.93;;;8.10;99.90;;;;;;5065554;28;20536;-71
2022/05/04 05:08:10;;;;;;;1.27;0.60;;;8.10;99.90;;;;;;5067853;28;20091;-71
2022/05/04 05:10:37;;;;;;;1.08;0.65;;;8.10;99.90;;;;;;5065726;28;20449;-71
2022/05/04 05:13:03;;;;;;;2.03;1.00;;;8.10;99.90;;;;;;5067686;28;20040;-71
2022/05/04 05:18:13;;;;;;;2.97;0.77;;;8.10;99.90;;;;;;5047696;28;20045;-71
2022/05/04 05:20:39;;;;;;;2.55;0.80;;;8.20;99.90;;;;;;5052851;28;20055;-71
2022/05/04 05:23:04;;;;;;;2.63;0.85;;;8.20;99.90;;;;;;5066630;28;20039;-71
2022/05/04 05:25:32;;;;;;;1.40;0.75;;;8.20;99.90;;;;;;5064971;28;20079;-71
2022/05/04 05:27:58;;;;;;;2.35;0.40;;;8.20;99.90;;;;;;5066331;28;20457;-71
2022/05/04 05:30:24;;;;;;;1.38;0.80;;;8.20;99.90;;;;;;5066082;28;20410;-71
2022/05/04 05:32:50;;;;;;;2.03;0.70;;;8.20;99.90;;;;;;5064088;28;20040;-71
2022/05/04 05:35:15;;;;;;;1.48;0.70;;;8.20;99.90;;;;;;5063256;28;20271;-71
2022/05/04 05:37:41;;;;;;;1.48;0.57;;;8.30;99.90;;;;;;5062903;28;20186;-71
2022/05/04 05:40:07;;;;;;;3.55;0.60;;;8.30;99.90;;;;;;5048565;28;20044;-71
2022/05/04 05:42:34;;;;;;;1.67;0.50;;;8.30;99.90;;;;;;5062342;28;20040;-71
2022/05/04 05:45:00;;;;;;;3.72;0.65;;;8.30;99.90;;;;;;5061636;28;20512;-71
2022/05/04 05:47:25;;;;;;;1.10;0.55;;;8.30;99.90;;;;;;5064327;28;20037;-71
2022/05/04 05:49:51;;;;;;;1.55;0.45;;;8.40;99.90;;;;;;5066173;28;20041;-71
2022/05/04 05:52:17;;;;;;;1.10;0.57;;;8.40;99.90;;;;;;5063342;28;20032;-71
2022/05/04 05:54:43;;;;;;;2.13;0.90;;;8.40;99.90;;;;;;5043417;28;20048;-71
2022/05/04 05:57:09;;;;;;;2.55;1.08;;;8.40;99.90;;;;;;5060670;28;20048;-71
2022/05/04 05:59:35;;;;;;;1.80;0.73;;;8.40;99.80;;;;;;5062436;28;20063;-71
2022/05/04 06:02:00;;;;;;;0.82;0.38;;;8.40;99.20;;;;;;5044902;28;20327;-71
2022/05/04 06:04:26;;;;;;;1.55;0.70;;;8.50;97.90;;;;;;5063609;28;20048;-71
2022/05/04 06:06:53;;;;;;;1.98;0.60;;;8.50;96.60;;;;;;5044639;28;20043;-71
2022/05/04 06:09:18;;;;;;;2.40;0.60;;;8.50;94.80;;;;;;5048963;28;20186;-71
2022/05/04 06:11:45;;;;;;;4.57;0.98;;;8.50;95.40;;;;;;5064868;28;20115;-71
2022/05/04 06:14:11;;;;;;;2.65;1.08;;;8.50;95.40;;;;;;5062855;28;20040;-71
2022/05/04 06:16:36;;;;;;;1.52;0.70;;;8.50;95.00;;;;;;5064625;28;20678;-71
2022/05/04 06:19:02;;;;;;;1.65;0.68;;;8.60;94.80;;;;;;5062061;28;20028;-71
2022/05/04 06:21:27;;;;;;;2.03;1.02;;;8.60;93.90;;;;;;5063088;28;20048;-71
2022/05/04 06:23:53;;;;;;;1.83;0.85;;;8.60;93.80;;;;;;5063059;28;20048;-71
2022/05/04 06:26:23;;;;;;;1.10;0.43;;;8.60;93.90;;;;;;5047778;28;20081;-71
2022/05/04 06:28:49;;;;;;;3.75;1.00;;;8.60;93.90;;;;;;5057005;28;20048;-71
2022/05/04 06:34:08;;;;;;;2.20;0.85;;;8.70;94.10;;;;;;5052969;28;20045;-71
2022/05/04 06:36:34;;;;;;;2.97;0.98;;;8.70;93.70;;;;;;5063969;28;20041;-71
2022/05/04 06:39:00;;;;;;;3.15;1.13;;;8.80;94.00;;;;;;5049450;28;20460;-71
2022/05/04 06:41:25;;;;;;;6.75;1.00;;;8.80;93.50;;;;;;5060163;28;20056;-71
2022/05/04 06:43:51;;;;;;;2.67;0.88;;;8.80;92.90;;;;;;5060782;28;20482;-71
2022/05/04 06:46:17;;;;;;;1.77;0.50;;;8.80;92.40;;;;;;5062529;28;20079;-71
2022/05/04 06:48:42;;;;;;;1.40;0.70;;;8.90;92.80;;;;;;5064492;28;20036;-71
2022/05/04 06:51:08;;;;;;;1.10;0.60;;;8.90;92.40;;;;;;5065592;28;20090;-71
2022/05/04 06:53:34;;;;;;;2.13;0.47;;;8.90;92.00;;;;;;5047557;28;20049;-71
2022/05/04 06:56:00;;;;;;;0.43;0.30;;;8.90;92.00;;;;;;5064518;28;20397;-71
2022/05/04 06:58:26;;;;;;;1.92;0.63;;;8.90;91.10;;;;;;5064599;28;20044;-71
2022/05/04 07:00:51;;;;;;;0.85;0.50;;;8.80;91.80;;;;;;5063493;28;20037;-71
2022/05/04 07:03:17;;;;;;;3.22;0.60;;;8.90;91.40;;;;;;5064856;28;20482;-71
2022/05/04 07:05:43;;;;;;;1.52;0.60;;;9.00;91.40;;;;;;5042202;28;20397;-71
2022/05/04 07:08:09;;;;;;;1.92;0.80;;;9.00;90.70;;;;;;5045303;28;20109;-71
2022/05/04 07:10:35;;;;;;;3.83;0.50;;;9.00;91.10;;;;;;5061294;28;20093;-71
2022/05/04 07:13:00;;;;;;;6.10;0.82;;;9.10;91.10;;;;;;5051705;28;20102;-71
2022/05/04 07:15:26;;;;;;;2.50;0.70;;;9.20;90.40;;;;;;5067946;28;20151;-71
2022/05/04 07:17:52;;;;;;;0.55;0.35;;;9.30;90.80;;;;;;5068755;28;20036;-71
2022/05/04 07:20:18;;;;;;;2.67;0.70;;;9.40;90.40;;;;;;5069414;28;20489;-71
2022/05/04 07:22:43;;;;;;;1.17;0.60;;;9.50;90.10;;;;;;5052917;28;20040;-71
2022/05/04 07:25:09;;;;;;;1.92;0.68;;;9.50;90.30;;;;;;5069531;28;20093;-71
2022/05/04 07:27:35;;;;;;;2.05;0.70;;;9.60;89.80;;;;;;5060812;28;20048;-71
2022/05/04 07:30:01;;;;;;;4.45;0.70;;;9.70;90.00;;;;;;5066381;28;20125;-71
2022/05/04 07:32:27;;;;;;;4.82;0.90;;;9.70;90.10;;;;;;5060772;28;20048;-71
2022/05/04 07:34:52;;;;;;;3.33;0.98;;;9.60;90.00;;;;;;5038797;28;20041;-71
2022/05/04 07:37:18;;;;;;;1.90;0.57;;;9.60;89.80;;;;;;5061968;28;20043;-71
2022/05/04 07:42:27;;;;;;;3.35;0.82;;;9.60;88.90;;;;;;5058013;28;20044;-71
2022/05/04 07:44:57;;;;;;;1.95;0.68;;;9.60;89.10;;;;;;5060809;28;20041;-71
2022/05/04 07:47:24;;;;;;;1.48;0.60;;;9.60;88.50;;;;;;5059995;28;20029;-71
2022/05/04 07:49:50;;;;;;;1.95;0.52;;;9.70;89.50;;;;;;5061413;28;20036;-71
2022/05/04 07:52:15;;;;;;;4.70;0.85;;;9.80;90.10;;;;;;5047815;28;20055;-71
2022/05/04 07:54:41;;;;;;;4.85;0.90;;;9.80;88.90;;;;;;5067927;28;20439;-71
2022/05/04 07:57:08;;;;;;;2.30;1.42;;;9.90;89.00;;;;;;5057008;28;20522;-71
2022/05/04 07:59:34;;;;;;;5.50;0.93;;;9.90;89.40;;;;;;5059377;28;20028;-71
2022/05/04 08:04:43;;;;;;;2.85;0.80;;;10.00;88.60;;;;;;5063326;28;20044;-71
2022/05/04 08:07:09;;;;;;;1.17;0.60;;;10.00;87.60;;;;;;5061240;28;20573;-71
2022/05/04 08:09:36;;;;;;;5.65;0.82;;;10.10;89.40;;;;;;5058753;28;20456;-71
2022/05/04 08:12:04;;;;;;;2.33;1.05;;;10.10;90.10;;;;;;5061098;28;20044;-71
2022/05/04 08:14:30;;;;;;;2.40;0.70;;;10.20;88.40;;;;;;5043575;28;20043;-71
2022/05/04 08:16:55;;;;;;;1.02;0.70;;;10.30;88.00;;;;;;5067829;28;20036;-71
2022/05/04 08:19:21;;;;;;;1.95;0.68;;;10.30;87.90;;;;;;5068790;28;20129;-71
2022/05/04 08:21:46;;;;;;;5.18;0.60;;;10.30;87.20;;;;;;5064298;28;20406;-71
2022/05/04 08:24:12;;;;;;;1.13;0.50;;;10.30;86.90;;;;;;5066946;28;20412;-71
2022/05/04 08:26:37;;;;;;;3.25;0.80;;;10.20;87.90;;;;;;5061732;28;20037;-71
2022/05/04 08:29:03;;;;;;;6.68;1.20;;;10.20;84.60;;;;;;5064053;28;20041;-71
2022/05/04 08:31:29;;;;;;;2.58;1.20;;;10.10;83.90;;;;;;5064767;28;20586;-71
2022/05/04 08:33:55;;;;;;;1.80;0.55;;;10.00;85.10;;;;;;5047995;28;20036;-71
2022/05/04 08:36:21;;;;;;;1.80;0.80;;;10.00;85.60;;;;;;5063101;28;20401;-71
2022/05/04 08:38:46;;;;;;;2.53;1.15;;;10.00;85.30;;;;;;5059308;28;20045;-71
2022/05/04 08:41:12;;;;;;;3.20;0.75;;;10.00;84.90;;;;;;5061507;28;20029;-71
2022/05/04 08:43:42;;;;;;;1.23;0.70;;;10.00;85.10;;;;;;5059719;28;20556;-71
2022/05/04 08:46:13;;;;;;;2.88;0.70;;;10.00;85.10;;;;;;5062997;28;20331;-71
2022/05/04 08:48:39;;;;;;;1.27;0.90;;;10.00;86.00;;;;;;5048245;28;20043;-71
2022/05/04 08:51:05;;;;;;;1.42;0.65;;;10.10;87.00;;;;;;5065880;28;20560;-71
2022/05/04 08:53:31;;;;;;;2.45;0.77;;;10.20;88.00;;;;;;5064883;28;20032;-71
2022/05/04 08:55:58;;;;;;;1.10;0.70;;;10.30;87.10;;;;;;5063504;28;20094;-71
2022/05/04 08:58:23;;;;;;;1.33;0.65;;;10.40;86.90;;;;;;5046314;28;20766;-71
2022/05/04 09:00:49;;;;;;;3.67;0.95;;;10.50;84.10;;;;;;5043291;28;20178;-71
2022/05/04 09:03:14;;;;;;;3.38;1.42;;;10.50;80.80;;;;;;5066143;28;20040;-71
2022/05/04 09:05:45;;;;;;;1.85;0.50;;;10.40;81.10;;;;;;5064023;28;20047;-71
2022/05/04 09:08:11;;;;;;;1.35;0.70;;;10.30;82.40;;;;;;5064642;28;20044;-71
2022/05/04 09:10:44;;;;;;;1.00;0.60;;;10.30;82.30;;;;;;5063669;28;20044;-71
2022/05/04 09:13:10;;;;;;;1.45;0.80;;;10.20;82.80;;;;;;5043114;28;20128;-71
2022/05/04 09:15:40;;;;;;;1.85;0.95;;;10.20;84.30;;;;;;5047212;28;20051;-71
2022/05/04 09:18:13;;;;;;;0.77;0.65;;;10.20;83.90;;;;;;5066919;28;20040;-71
2022/05/04 09:20:59;;;;;;;1.10;0.70;;;10.20;84.80;;;;;;5044836;28;20029;-72
2022/05/04 09:23:30;;;;;;;2.78;0.63;;;10.20;83.70;;;;;;5071004;28;20041;-71
2022/05/04 09:25:58;;;;;;;1.67;0.88;;;10.20;83.80;;;;;;5065844;28;20048;-71
2022/05/04 09:28:26;;;;;;;1.00;0.75;;;10.30;84.40;;;;;;5065082;28;20040;-71
2022/05/04 09:31:05;;;;;;;1.20;0.70;;;10.40;84.70;;;;;;5065965;28;20086;-72
2022/05/04 09:33:33;;;;;;;4.38;1.02;;;10.40;80.40;;;;;;5040482;28;20086;-72
2022/05/04 09:36:03;;;;;;;1.55;0.68;;;10.40;84.70;;;;;;5065355;28;20040;-72
2022/05/04 09:46:48;;;;;;;2.85;0.68;;;10.70;81.90;;;;;;5055470;28;20044;-72
2022/05/04 09:49:19;;;;;;;5.80;1.10;;;10.70;82.40;;;;;;5065489;28;20122;-71
2022/05/04 09:51:53;;;;;;;1.33;0.73;;;10.70;83.50;;;;;;5066510;28;20537;-72
2022/05/04 09:54:21;;;;;;;1.55;0.73;;;10.80;84.00;;;;;;5062779;28;20119;-72
2022/05/04 09:56:52;;;;;;;4.47;0.88;;;10.80;83.90;;;;;;5065215;28;20520;-72
2022/05/04 09:59:21;;;;;;;1.45;0.80;;;10.80;82.90;;;;;;5064706;28;20524;-72
2022/05/04 10:01:47;;;;;;;1.23;0.75;;;10.80;82.70;;;;;;5065659;28;20040;-71
2022/05/04 10:04:13;;;;;;;2.55;0.80;;;10.70;82.50;;;;;;5064384;28;20075;-72
2022/05/04 10:06:39;;;;;;;2.20;0.70;;;10.80;81.30;;;;;;5065444;28;20094;-71
2022/05/04 10:09:06;;;;;;;4.38;0.57;;;10.70;80.40;;;;;;5062938;28;20048;-72
2022/05/04 10:11:36;;;;;;;2.28;0.73;;;10.70;80.30;;;;;;5042724;28;20552;-71
2022/05/04 10:14:04;;;;;;;2.05;0.80;;;10.70;80.60;;;;;;5059737;28;20036;-71
2022/05/04 10:16:58;;;;;;;0.85;0.50;;;10.70;82.60;;;;;;5061621;28;20098;-71
2022/05/04 10:19:33;;;;;;;6.32;0.80;;;10.80;83.00;;;;;;5024328;28;20197;-71
2022/05/04 10:22:00;;;;;;;1.83;0.80;;;10.80;80.50;;;;;;5063003;28;20041;-71
2022/05/04 10:24:29;;;;;;;2.33;0.95;;;10.90;82.30;;;;;;5035885;28;20689;-71
2022/05/04 10:27:28;;;;;;;2.88;0.90;;;10.90;78.70;;;;;;5053323;28;20068;-71
2022/05/04 10:32:48;;;;;;;1.77;1.38;;;10.90;77.10;;;;;;5060329;28;20048;-71
2022/05/04 10:35:32;;;;;;;3.72;1.02;;;10.90;79.60;;;;;;5057994;28;20037;-71
2022/05/04 10:37:58;;;;;;;1.73;0.85;;;10.90;79.20;;;;;;5043950;28;20088;-71
2022/05/04 10:40:57;;;;;;;2.33;1.10;;;10.90;79.90;;;;;;5058197;28;20143;-71
2022/05/04 10:43:45;;;;;;;2.47;0.80;;;11.00;74.10;;;;;;5060836;28;20036;-71
2022/05/04 10:46:17;;;;;;;1.13;0.65;;;11.00;76.80;;;;;;5061820;28;20126;-71
2022/05/04 10:48:45;;;;;;;2.45;0.70;;;11.00;79.50;;;;;;5063878;28;20421;-71
2022/05/04 10:51:18;;;;;;;1.20;0.60;;;11.00;79.30;;;;;;5061721;28;20045;-71
2022/05/04 10:53:46;;;;;;;1.98;1.00;;;11.00;78.20;;;;;;5063721;28;20366;-71
2022/05/04 10:56:20;;;;;;;2.25;1.13;;;11.10;77.50;;;;;;5064102;28;20167;-71
2022/05/04 10:58:52;;;;;;;2.55;0.77;;;11.10;79.50;;;;;;5071720;28;20044;-71
2022/05/04 11:01:39;;;;;;;4.68;0.80;;;11.20;81.20;;;;;;5064024;28;20039;-71
2022/05/04 11:04:11;;;;;;;2.05;0.70;;;11.30;79.00;;;;;;5063599;28;20290;-71
2022/05/04 11:06:41;;;;;;;3.80;1.00;;;11.40;79.70;;;;;;5062693;28;20443;-71
2022/05/04 11:09:13;;;;;;;1.33;0.80;;;11.50;80.10;;;;;;5055012;28;20052;-71
2022/05/04 11:11:41;;;;;;;3.10;1.17;;;11.60;77.90;;;;;;5060443;28;20044;-71
2022/05/04 11:14:07;;;;;;;1.60;1.00;;;11.60;77.40;;;;;;5061728;28;20123;-71
2022/05/04 11:16:33;;;;;;;1.15;0.68;;;11.60;78.10;;;;;;5063148;28;20490;-71
2022/05/04 11:19:00;;;;;;;1.42;0.98;;;11.50;75.90;;;;;;5043091;28;20029;-70
2022/05/04 11:21:27;;;;;;;4.32;0.90;;;11.50;75.10;;;;;;5060484;28;20209;-71
2022/05/04 11:23:56;;;;;;;3.05;0.80;;;11.50;76.10;;;;;;5063899;28;20575;-71
2022/05/04 11:26:24;;;;;;;2.25;0.82;;;11.40;76.70;;;;;;5046400;28;20111;-71
2022/05/04 11:28:51;;;;;;;2.15;1.13;;;11.50;79.10;;;;;;5045489;28;20042;-71
2022/05/04 11:31:18;;;;;;;3.78;0.90;;;11.60;77.20;;;;;;5062513;28;20040;-71
2022/05/04 11:33:45;;;;;;;1.73;0.93;;;11.60;76.40;;;;;;5045375;28;20189;-71
2022/05/04 11:36:11;;;;;;;2.63;0.80;;;11.60;76.20;;;;;;5049141;28;20048;-71
2022/05/04 11:38:38;;;;;;;1.92;0.88;;;11.50;76.30;;;;;;5063480;28;20063;-71
2022/05/04 11:41:05;;;;;;;1.58;0.70;;;11.50;77.20;;;;;;5064439;28;20512;-71
2022/05/04 11:43:35;;;;;;;2.05;0.93;;;11.50;77.30;;;;;;5064086;28;20048;-71
2022/05/04 11:46:06;;;;;;;5.15;1.00;;;11.40;78.10;;;;;;5065832;28;20090;-71
2022/05/04 11:48:32;;;;;;;2.65;1.08;;;11.60;78.80;;;;;;5063373;28;20354;-71
2022/05/04 11:50:58;;;;;;;2.58;1.23;;;11.60;77.90;;;;;;5064892;28;20504;-71
2022/05/04 11:53:24;;;;;;;2.03;0.80;;;11.60;78.10;;;;;;5061711;28;20032;-71
2022/05/04 11:55:49;;;;;;;1.50;0.70;;;11.70;78.50;;;;;;5063468;28;20542;-71
2022/05/04 11:58:15;;;;;;;4.90;0.85;;;11.70;78.70;;;;;;5060078;28;20279;-71
2022/05/04 12:00:42;;;;;;;1.75;0.90;;;11.80;79.30;;;;;;5063618;28;20094;-71
2022/05/04 12:03:08;;;;;;;2.45;0.77;;;11.90;76.90;;;;;;5064368;28;20040;-71
2022/05/04 12:05:36;;;;;;;1.20;0.50;;;12.00;78.00;;;;;;5064293;28;20040;-71
2022/05/04 12:08:04;;;;;;;1.30;0.60;;;12.10;79.30;;;;;;5064124;28;20051;-71
2022/05/04 12:10:31;;;;;;;1.88;0.82;;;12.20;77.80;;;;;;5062023;28;20037;-71
2022/05/04 12:12:58;;;;;;;3.20;0.93;;;12.30;75.40;;;;;;5063291;28;20052;-71
2022/05/04 12:15:26;;;;;;;2.13;1.15;;;12.30;74.10;;;;;;5045070;28;20123;-71
2022/05/04 12:18:00;;;;;;;2.85;0.85;;;12.20;74.40;;;;;;5054920;28;20032;-71
2022/05/04 12:20:27;;;;;;;4.88;0.80;;;12.10;72.60;;;;;;5061186;28;20380;-71
2022/05/04 12:22:54;;;;;;;1.77;0.73;;;12.20;73.30;;;;;;5063459;28;20490;-71
2022/05/04 12:25:22;;;;;;;3.40;0.82;;;12.10;73.30;;;;;;5062388;28;20208;-71
2022/05/04 12:27:49;;;;;;;1.33;0.65;;;12.10;71.60;;;;;;5062929;28;20047;-71
2022/05/04 12:33:08;;;;;;;2.00;0.90;;;12.00;73.60;;;;;;5063886;28;20329;-71
2022/05/04 12:35:35;;;;;;;3.03;1.13;;;12.00;73.40;;;;;;5060949;28;20521;-71
2022/05/04 12:38:03;;;;;;;4.80;1.20;;;12.00;74.30;;;;;;5044865;28;20092;-71
2022/05/04 12:40:31;;;;;;;2.88;0.70;;;12.00;72.50;;;;;;5057380;28;20060;-70
2022/05/04 12:42:58;;;;;;;1.92;0.77;;;12.00;73.90;;;;;;5045967;28;20032;-71
2022/05/04 12:45:25;;;;;;;1.10;0.55;;;12.00;74.80;;;;;;5043804;28;20040;-71
2022/05/04 12:47:55;;;;;;;1.52;0.90;;;12.10;75.60;;;;;;5043267;28;20056;-71
2022/05/04 12:50:22;;;;;;;6.18;1.80;;;12.10;74.40;;;;;;5046268;28;20044;-73
2022/05/04 12:52:49;;;;;;;3.78;0.90;;;12.20;73.60;;;;;;5061838;28;20043;-71
2022/05/04 12:55:15;;;;;;;2.85;1.10;;;12.20;73.90;;;;;;5058875;28;20055;-71
2022/05/04 12:57:42;;;;;;;5.20;1.17;;;12.30;74.30;;;;;;5060917;28;20040;-71
2022/05/04 13:00:08;;;;;;;2.72;0.88;;;12.30;74.70;;;;;;5041147;28;20060;-71
2022/05/04 13:02:34;;;;;;;2.28;1.08;;;12.40;73.40;;;;;;5042776;28;20099;-71
2022/05/04 13:05:00;;;;;;;1.25;0.68;;;12.40;73.40;;;;;;5060771;28;20699;-71
2022/05/04 13:07:25;;;;;;;1.92;0.98;;;12.40;73.10;;;;;;5045475;28;20032;-71
2022/05/04 13:09:51;;;;;;;1.17;0.63;;;12.40;74.00;;;;;;5058919;28;20040;-71
2022/05/04 13:12:16;;;;;;;4.20;1.05;;;12.50;73.70;;;;;;5060216;28;20036;-71
2022/05/04 13:14:42;;;;;;;3.85;1.42;;;12.60;73.60;;;;;;5059374;28;20025;-71
2022/05/04 13:17:07;;;;;;;3.35;0.95;;;12.60;72.80;;;;;;5060930;28;20041;-71
2022/05/04 13:19:34;;;;;;;2.00;0.57;;;12.70;73.30;;;;;;5044025;28;20521;-71
2022/05/04 13:22:00;;;;;;;5.82;1.48;;;12.80;72.80;;;;;;5061598;28;20040;-71
2022/05/04 13:24:26;;;;;;;1.90;1.05;;;12.90;72.90;;;;;;5061154;28;20043;-71